sensor_id;sensor_type;location;lat;lon;timestamp;pressure;altitude;pressure_sealevel;temperature
7389;BMP180;3735;50.136;11.062;2024-01-27T00:02:01;99642.00;;;4.20
7389;BMP180;3735;50.136;11.062;2024-01-27T00:04:27;99638.00;;;4.10
7389;BMP180;3735;50.136;11.062;2024-01-27T00:06:52;99645.00;;;4.00
7389;BMP180;3735;50.136;11.062;2024-01-27T00:09:18;99647.00;;;4.10
7389;BMP180;3735;50.136;11.062;2024-01-27T00:11:44;99649.00;;;4.20
7389;BMP180;3735;50.136;11.062;2024-01-27T00:14:10;99651.00;;;4.30
7389;BMP180;3735;50.136;11.062;2024-01-27T00:16:36;99659.00;;;4.30
7389;BMP180;3735;50.136;11.062;2024-01-27T00:19:01;99656.00;;;4.30
7389;BMP180;3735;50.136;11.062;2024-01-27T00:21:30;99664.00;;;4.30
7389;BMP180;3735;50.136;11.062;2024-01-27T00:23:56;99665.00;;;4.30
7389;BMP180;3735;50.136;11.062;2024-01-27T00:26:26;99676.00;;;4.20
7389;BMP180;3735;50.136;11.062;2024-01-27T00:28:53;99667.00;;;4.20
7389;BMP180;3735;50.136;11.062;2024-01-27T00:31:19;99666.00;;;4.20
7389;BMP180;3735;50.136;11.062;2024-01-27T00:33:45;99662.00;;;4.10
7389;BMP180;3735;50.136;11.062;2024-01-27T00:36:10;99673.00;;;4.20
7389;BMP180;3735;50.136;11.062;2024-01-27T00:38:37;99675.00;;;4.00
7389;BMP180;3735;50.136;11.062;2024-01-27T00:41:07;99673.00;;;4.00
7389;BMP180;3735;50.136;11.062;2024-01-27T00:43:35;99674.00;;;3.90
7389;BMP180;3735;50.136;11.062;2024-01-27T00:46:01;99683.00;;;3.70
7389;BMP180;3735;50.136;11.062;2024-01-27T00:48:26;99687.00;;;3.60
7389;BMP180;3735;50.136;11.062;2024-01-27T00:50:53;99675.00;;;3.50
7389;BMP180;3735;50.136;11.062;2024-01-27T00:53:18;99673.00;;;3.40
7389;BMP180;3735;50.136;11.062;2024-01-27T00:55:44;99671.00;;;3.40
7389;BMP180;3735;50.136;11.062;2024-01-27T00:58:10;99669.00;;;3.30
7389;BMP180;3735;50.136;11.062;2024-01-27T01:00:36;99680.00;;;3.10
7389;BMP180;3735;50.136;11.062;2024-01-27T01:03:02;99688.00;;;3.10
7389;BMP180;3735;50.136;11.062;2024-01-27T01:05:28;99695.00;;;3.00
7389;BMP180;3735;50.136;11.062;2024-01-27T01:07:53;99700.00;;;3.00
7389;BMP180;3735;50.136;11.062;2024-01-27T01:10:20;99682.00;;;3.00
7389;BMP180;3735;50.136;11.062;2024-01-27T01:12:45;99708.00;;;3.00
7389;BMP180;3735;50.136;11.062;2024-01-27T01:15:11;99705.00;;;3.00
7389;BMP180;3735;50.136;11.062;2024-01-27T01:17:38;99697.00;;;3.00
7389;BMP180;3735;50.136;11.062;2024-01-27T01:20:05;99703.00;;;3.00
7389;BMP180;3735;50.136;11.062;2024-01-27T01:22:31;99708.00;;;2.90
7389;BMP180;3735;50.136;11.062;2024-01-27T01:24:57;99716.00;;;3.00
7389;BMP180;3735;50.136;11.062;2024-01-27T01:27:22;99715.00;;;3.00
7389;BMP180;3735;50.136;11.062;2024-01-27T01:29:48;99713.00;;;3.00
7389;BMP180;3735;50.136;11.062;2024-01-27T01:32:14;99716.00;;;2.90
7389;BMP180;3735;50.136;11.062;2024-01-27T01:34:41;99717.00;;;2.90
7389;BMP180;3735;50.136;11.062;2024-01-27T01:37:07;99728.00;;;2.90
7389;BMP180;3735;50.136;11.062;2024-01-27T01:39:32;99723.00;;;3.00
7389;BMP180;3735;50.136;11.062;2024-01-27T01:41:58;99721.00;;;2.90
7389;BMP180;3735;50.136;11.062;2024-01-27T01:44:30;99722.00;;;2.90
7389;BMP180;3735;50.136;11.062;2024-01-27T01:46:58;99700.00;;;2.90
7389;BMP180;3735;50.136;11.062;2024-01-27T01:49:24;99701.00;;;2.80
7389;BMP180;3735;50.136;11.062;2024-01-27T01:51:50;99729.00;;;2.80
7389;BMP180;3735;50.136;11.062;2024-01-27T01:54:16;99725.00;;;2.80
7389;BMP180;3735;50.136;11.062;2024-01-27T01:56:45;99734.00;;;2.70
7389;BMP180;3735;50.136;11.062;2024-01-27T01:59:11;99729.00;;;2.60
7389;BMP180;3735;50.136;11.062;2024-01-27T02:01:37;99738.00;;;2.60
7389;BMP180;3735;50.136;11.062;2024-01-27T02:04:04;99744.00;;;2.50
7389;BMP180;3735;50.136;11.062;2024-01-27T02:06:30;99750.00;;;2.40
7389;BMP180;3735;50.136;11.062;2024-01-27T02:08:56;99761.00;;;2.60
7389;BMP180;3735;50.136;11.062;2024-01-27T02:11:22;99756.00;;;2.60
7389;BMP180;3735;50.136;11.062;2024-01-27T02:13:48;99757.00;;;2.70
7389;BMP180;3735;50.136;11.062;2024-01-27T02:16:14;99768.00;;;2.70
7389;BMP180;3735;50.136;11.062;2024-01-27T02:18:40;99765.00;;;2.70
7389;BMP180;3735;50.136;11.062;2024-01-27T02:21:05;99757.00;;;2.70
7389;BMP180;3735;50.136;11.062;2024-01-27T02:23:31;99765.00;;;2.70
7389;BMP180;3735;50.136;11.062;2024-01-27T02:25:57;99768.00;;;2.80
7389;BMP180;3735;50.136;11.062;2024-01-27T02:28:25;99760.00;;;2.80
7389;BMP180;3735;50.136;11.062;2024-01-27T02:30:51;99763.00;;;2.80
7389;BMP180;3735;50.136;11.062;2024-01-27T02:33:16;99765.00;;;2.80
7389;BMP180;3735;50.136;11.062;2024-01-27T02:35:42;99767.00;;;2.70
7389;BMP180;3735;50.136;11.062;2024-01-27T02:38:09;99766.00;;;2.70
7389;BMP180;3735;50.136;11.062;2024-01-27T02:40:35;99769.00;;;2.60
7389;BMP180;3735;50.136;11.062;2024-01-27T02:43:01;99770.00;;;2.60
7389;BMP180;3735;50.136;11.062;2024-01-27T02:45:27;99778.00;;;2.60
7389;BMP180;3735;50.136;11.062;2024-01-27T02:47:52;99775.00;;;2.60
7389;BMP180;3735;50.136;11.062;2024-01-27T02:50:18;99788.00;;;2.50
7389;BMP180;3735;50.136;11.062;2024-01-27T02:52:44;99790.00;;;2.60
7389;BMP180;3735;50.136;11.062;2024-01-27T02:55:10;99792.00;;;2.60
7389;BMP180;3735;50.136;11.062;2024-01-27T02:57:36;99785.00;;;2.60
7389;BMP180;3735;50.136;11.062;2024-01-27T03:00:02;99792.00;;;2.50
7389;BMP180;3735;50.136;11.062;2024-01-27T03:02:28;99796.00;;;2.60
7389;BMP180;3735;50.136;11.062;2024-01-27T03:04:54;99809.00;;;2.60
7389;BMP180;3735;50.136;11.062;2024-01-27T03:07:20;99803.00;;;2.60
7389;BMP180;3735;50.136;11.062;2024-01-27T03:09:46;99805.00;;;2.60
7389;BMP180;3735;50.136;11.062;2024-01-27T03:12:12;99801.00;;;2.60
7389;BMP180;3735;50.136;11.062;2024-01-27T03:14:38;99809.00;;;2.60
7389;BMP180;3735;50.136;11.062;2024-01-27T03:17:04;99791.00;;;2.50
7389;BMP180;3735;50.136;11.062;2024-01-27T03:19:29;99802.00;;;2.50
7389;BMP180;3735;50.136;11.062;2024-01-27T03:21:55;99784.00;;;2.40
7389;BMP180;3735;50.136;11.062;2024-01-27T03:24:21;99803.00;;;2.40
7389;BMP180;3735;50.136;11.062;2024-01-27T03:26:47;99804.00;;;2.30
7389;BMP180;3735;50.136;11.062;2024-01-27T03:29:13;99801.00;;;2.30
7389;BMP180;3735;50.136;11.062;2024-01-27T03:31:38;99806.00;;;2.30
7389;BMP180;3735;50.136;11.062;2024-01-27T03:34:05;99806.00;;;2.20
7389;BMP180;3735;50.136;11.062;2024-01-27T03:36:31;99817.00;;;2.20
7389;BMP180;3735;50.136;11.062;2024-01-27T03:38:58;99825.00;;;2.20
7389;BMP180;3735;50.136;11.062;2024-01-27T03:41:24;99813.00;;;2.20
7389;BMP180;3735;50.136;11.062;2024-01-27T03:43:51;99827.00;;;2.30
7389;BMP180;3735;50.136;11.062;2024-01-27T03:46:16;99826.00;;;2.20
7389;BMP180;3735;50.136;11.062;2024-01-27T03:48:42;99832.00;;;2.20
7389;BMP180;3735;50.136;11.062;2024-01-27T03:51:08;99835.00;;;2.20
7389;BMP180;3735;50.136;11.062;2024-01-27T03:53:34;99841.00;;;2.20
7389;BMP180;3735;50.136;11.062;2024-01-27T03:56:00;99831.00;;;2.20
7389;BMP180;3735;50.136;11.062;2024-01-27T03:58:30;99826.00;;;2.10
7389;BMP180;3735;50.136;11.062;2024-01-27T04:00:57;99828.00;;;2.20
7389;BMP180;3735;50.136;11.062;2024-01-27T04:03:23;99831.00;;;2.20
7389;BMP180;3735;50.136;11.062;2024-01-27T04:05:49;99835.00;;;2.10
7389;BMP180;3735;50.136;11.062;2024-01-27T04:08:15;99823.00;;;2.10
7389;BMP180;3735;50.136;11.062;2024-01-27T04:10:41;99834.00;;;2.10
7389;BMP180;3735;50.136;11.062;2024-01-27T04:13:07;99841.00;;;2.10
7389;BMP180;3735;50.136;11.062;2024-01-27T04:15:34;99838.00;;;2.20
7389;BMP180;3735;50.136;11.062;2024-01-27T04:18:05;99841.00;;;2.10
7389;BMP180;3735;50.136;11.062;2024-01-27T04:20:31;99848.00;;;2.20
7389;BMP180;3735;50.136;11.062;2024-01-27T04:22:57;99841.00;;;2.20
7389;BMP180;3735;50.136;11.062;2024-01-27T04:25:23;99848.00;;;2.20
7389;BMP180;3735;50.136;11.062;2024-01-27T04:27:50;99843.00;;;2.10
7389;BMP180;3735;50.136;11.062;2024-01-27T04:30:16;99846.00;;;2.10
7389;BMP180;3735;50.136;11.062;2024-01-27T04:32:41;99839.00;;;2.10
7389;BMP180;3735;50.136;11.062;2024-01-27T04:35:11;99836.00;;;2.10
7389;BMP180;3735;50.136;11.062;2024-01-27T04:37:38;99834.00;;;2.00
7389;BMP180;3735;50.136;11.062;2024-01-27T04:40:05;99837.00;;;2.00
7389;BMP180;3735;50.136;11.062;2024-01-27T04:42:34;99843.00;;;1.80
7389;BMP180;3735;50.136;11.062;2024-01-27T04:45:00;99839.00;;;1.60
7389;BMP180;3735;50.136;11.062;2024-01-27T04:53:51;99836.00;;;1.50
7389;BMP180;3735;50.136;11.062;2024-01-27T04:57:32;99849.00;;;1.50
7389;BMP180;3735;50.136;11.062;2024-01-27T05:11:46;99856.00;;;1.70
7389;BMP180;3735;50.136;11.062;2024-01-27T05:14:53;99860.00;;;1.70
7389;BMP180;3735;50.136;11.062;2024-01-27T05:17:41;99847.00;;;1.90
7389;BMP180;3735;50.136;11.062;2024-01-27T05:24:37;99874.00;;;1.80
7389;BMP180;3735;50.136;11.062;2024-01-27T05:28:10;99874.00;;;1.80
7389;BMP180;3735;50.136;11.062;2024-01-27T05:31:31;99863.00;;;1.80
7389;BMP180;3735;50.136;11.062;2024-01-27T05:38:13;99863.00;;;1.80
7389;BMP180;3735;50.136;11.062;2024-01-27T05:41:28;99872.00;;;1.80
7389;BMP180;3735;50.136;11.062;2024-01-27T05:47:55;99877.00;;;1.80
7389;BMP180;3735;50.136;11.062;2024-01-27T05:54:53;99875.00;;;1.80
7389;BMP180;3735;50.136;11.062;2024-01-27T05:57:35;99878.00;;;1.60
7389;BMP180;3735;50.136;11.062;2024-01-27T06:00:43;99881.00;;;1.60
7389;BMP180;3735;50.136;11.062;2024-01-27T06:07:21;99885.00;;;1.40
7389;BMP180;3735;50.136;11.062;2024-01-27T06:14:04;99894.00;;;1.50
7389;BMP180;3735;50.136;11.062;2024-01-27T06:20:27;99903.00;;;1.50
7389;BMP180;3735;50.136;11.062;2024-01-27T06:24:03;99908.00;;;1.60
7389;BMP180;3735;50.136;11.062;2024-01-27T06:27:00;99909.00;;;1.60
7389;BMP180;3735;50.136;11.062;2024-01-27T06:41:31;99934.00;;;1.40
7389;BMP180;3735;50.136;11.062;2024-01-27T06:44:30;99939.00;;;1.40
7389;BMP180;3735;50.136;11.062;2024-01-27T06:48:07;99942.00;;;1.30
7389;BMP180;3735;50.136;11.062;2024-01-27T06:55:58;99947.00;;;1.00
7389;BMP180;3735;50.136;11.062;2024-01-27T06:59:42;99958.00;;;0.90
7389;BMP180;3735;50.136;11.062;2024-01-27T07:02:52;99964.00;;;0.80
7389;BMP180;3735;50.136;11.062;2024-01-27T07:05:54;99956.00;;;0.70
7389;BMP180;3735;50.136;11.062;2024-01-27T07:20:54;99993.00;;;0.60
7389;BMP180;3735;50.136;11.062;2024-01-27T07:24:19;99979.00;;;0.70
7389;BMP180;3735;50.136;11.062;2024-01-27T07:34:52;99989.00;;;0.90
7389;BMP180;3735;50.136;11.062;2024-01-27T07:41:31;99994.00;;;1.00
7389;BMP180;3735;50.136;11.062;2024-01-27T07:44:55;99989.00;;;1.20
7389;BMP180;3735;50.136;11.062;2024-01-27T07:48:13;99986.00;;;1.10
7389;BMP180;3735;50.136;11.062;2024-01-27T07:55:19;99995.00;;;1.10
7389;BMP180;3735;50.136;11.062;2024-01-27T08:01:44;99982.00;;;1.00
7389;BMP180;3735;50.136;11.062;2024-01-27T08:13:13;99991.00;;;1.30
7389;BMP180;3735;50.136;11.062;2024-01-27T08:16:22;99983.00;;;1.50
7389;BMP180;3735;50.136;11.062;2024-01-27T08:19:24;99983.00;;;1.60
7389;BMP180;3735;50.136;11.062;2024-01-27T08:22:37;99990.00;;;1.90
7389;BMP180;3735;50.136;11.062;2024-01-27T08:25:19;99988.00;;;2.00
7389;BMP180;3735;50.136;11.062;2024-01-27T08:28:10;99979.00;;;2.10
7389;BMP180;3735;50.136;11.062;2024-01-27T08:32:01;99989.00;;;2.20
7389;BMP180;3735;50.136;11.062;2024-01-27T08:34:40;99996.00;;;2.30
7389;BMP180;3735;50.136;11.062;2024-01-27T08:42:04;100020.00;;;2.50
7389;BMP180;3735;50.136;11.062;2024-01-27T08:45:37;100012.00;;;2.50
7389;BMP180;3735;50.136;11.062;2024-01-27T08:48:43;100016.00;;;2.60
7389;BMP180;3735;50.136;11.062;2024-01-27T08:55:04;100000.00;;;2.70
7389;BMP180;3735;50.136;11.062;2024-01-27T09:02:04;100024.00;;;2.80
7389;BMP180;3735;50.136;11.062;2024-01-27T09:05:22;100033.00;;;2.90
7389;BMP180;3735;50.136;11.062;2024-01-27T09:08:25;100025.00;;;2.80
7389;BMP180;3735;50.136;11.062;2024-01-27T09:11:02;100031.00;;;3.00
7389;BMP180;3735;50.136;11.062;2024-01-27T09:21:55;100040.00;;;3.50
7389;BMP180;3735;50.136;11.062;2024-01-27T09:28:40;100031.00;;;3.70
7389;BMP180;3735;50.136;11.062;2024-01-27T09:36:04;100048.00;;;3.70
7389;BMP180;3735;50.136;11.062;2024-01-27T09:43:16;100047.00;;;4.20
7389;BMP180;3735;50.136;11.062;2024-01-27T09:46:22;100041.00;;;4.30
7389;BMP180;3735;50.136;11.062;2024-01-27T09:49:39;100034.00;;;4.10
7389;BMP180;3735;50.136;11.062;2024-01-27T09:53:32;100030.00;;;4.30
7389;BMP180;3735;50.136;11.062;2024-01-27T10:04:31;100017.00;;;8.30
7389;BMP180;3735;50.136;11.062;2024-01-27T10:07:37;100000.00;;;9.20
7389;BMP180;3735;50.136;11.062;2024-01-27T10:10:28;100018.00;;;9.70
7389;BMP180;3735;50.136;11.062;2024-01-27T10:13:56;100011.00;;;10.40
7389;BMP180;3735;50.136;11.062;2024-01-27T10:17:37;100001.00;;;10.00
7389;BMP180;3735;50.136;11.062;2024-01-27T10:24:35;100002.00;;;9.60
7389;BMP180;3735;50.136;11.062;2024-01-27T10:27:22;99996.00;;;10.20
7389;BMP180;3735;50.136;11.062;2024-01-27T10:37:56;100008.00;;;10.40
7389;BMP180;3735;50.136;11.062;2024-01-27T10:41:18;99997.00;;;11.30
7389;BMP180;3735;50.136;11.062;2024-01-27T10:45:08;99992.00;;;12.00
7389;BMP180;3735;50.136;11.062;2024-01-27T10:48:29;99997.00;;;11.50
7389;BMP180;3735;50.136;11.062;2024-01-27T10:51:53;100001.00;;;10.50
7389;BMP180;3735;50.136;11.062;2024-01-27T10:54:52;100006.00;;;10.70
7389;BMP180;3735;50.136;11.062;2024-01-27T11:33:51;99996.00;;;13.30
7389;BMP180;3735;50.136;11.062;2024-01-27T12:09:32;100005.00;;;12.90
7389;BMP180;3735;50.136;11.062;2024-01-27T12:43:32;100035.00;;;12.20
7389;BMP180;3735;50.136;11.062;2024-01-27T12:53:12;100031.00;;;11.00
7389;BMP180;3735;50.136;11.062;2024-01-27T12:56:33;100030.00;;;11.60
7389;BMP180;3735;50.136;11.062;2024-01-27T12:59:35;100035.00;;;11.60
7389;BMP180;3735;50.136;11.062;2024-01-27T13:10:05;100040.00;;;11.90
7389;BMP180;3735;50.136;11.062;2024-01-27T13:13:02;100044.00;;;12.00
7389;BMP180;3735;50.136;11.062;2024-01-27T13:16:06;100035.00;;;11.60
7389;BMP180;3735;50.136;11.062;2024-01-27T13:19:08;100035.00;;;10.50
7389;BMP180;3735;50.136;11.062;2024-01-27T13:22:00;100033.00;;;10.70
7389;BMP180;3735;50.136;11.062;2024-01-27T13:25:21;100016.00;;;12.00
7389;BMP180;3735;50.136;11.062;2024-01-27T13:31:51;100018.00;;;12.60
7389;BMP180;3735;50.136;11.062;2024-01-27T13:35:03;100010.00;;;11.70
7389;BMP180;3735;50.136;11.062;2024-01-27T13:38:14;100012.00;;;11.30
7389;BMP180;3735;50.136;11.062;2024-01-27T13:40:59;100000.00;;;11.30
7389;BMP180;3735;50.136;11.062;2024-01-27T13:43:44;99985.00;;;12.00
7389;BMP180;3735;50.136;11.062;2024-01-27T13:46:11;99994.00;;;11.80
7389;BMP180;3735;50.136;11.062;2024-01-27T13:49:09;100003.00;;;11.80
7389;BMP180;3735;50.136;11.062;2024-01-27T13:59:11;100013.00;;;10.90
7389;BMP180;3735;50.136;11.062;2024-01-27T14:05:11;100016.00;;;9.10
7389;BMP180;3735;50.136;11.062;2024-01-27T14:07:50;100025.00;;;8.70
7389;BMP180;3735;50.136;11.062;2024-01-27T14:11:08;100018.00;;;8.30
7389;BMP180;3735;50.136;11.062;2024-01-27T14:14:07;100018.00;;;8.50
7389;BMP180;3735;50.136;11.062;2024-01-27T14:17:05;100016.00;;;8.90
7389;BMP180;3735;50.136;11.062;2024-01-27T14:20:28;100017.00;;;9.60
7389;BMP180;3735;50.136;11.062;2024-01-27T14:23:54;100008.00;;;9.20
7389;BMP180;3735;50.136;11.062;2024-01-27T14:26:59;100003.00;;;9.10
7389;BMP180;3735;50.136;11.062;2024-01-27T14:30:12;100008.00;;;8.90
